CheckWX is a tool to help pilots better visualize weather data.  It is not intended as a substitute for an official pre-flight weather briefing.

09:55:20 UTC

EGLL METAR
London Heathrow Airport
London, United Kingdom
Current

35 mins ago

EGLL 190920Z AUTO 24011KT 9999 BKN022 BKN031 18/12 Q1013 TEMPO SHRA
Observed
Aug-19 @ 09:20 UTC
Wind
  • 240° at 11 KTS
Visibility
10,000+ meters
Flight Rules
MVFR
Cloud Levels
  • Broken at 2,200' AGL
  • Broken at 3,100' AGL
Temperature
18°C / 64°F
Dewpoint
12°C / 54°F
Humidity
68%
Altimeter
29.91" Hg
Pressure
1012.92 hPa
Previous

1 hour ago

EGLL 190850Z AUTO 24012KT 9999 FEW022 SCT045 17/13 Q1013 NOSIG
Observed
Aug-19 @ 08:50 UTC
Wind
  • 240° at 12 KTS
Visibility
10,000+ meters
Flight Rules
VFR
Cloud Levels
  • Few at 2,200' AGL
  • Scattered at 4,500' AGL
Temperature
17°C / 63°F
Dewpoint
13°C / 55°F
Humidity
77%
Altimeter
29.91" Hg
Pressure
1012.92 hPa
Previous

2 hours ago

EGLL 190820Z AUTO 24012KT 9999 FEW018 16/12 Q1013 NOSIG
Observed
Aug-19 @ 08:20 UTC
Wind
  • 240° at 12 KTS
Visibility
10,000+ meters
Flight Rules
VFR
Cloud Levels
  • Few at 1,800' AGL
Temperature
16°C / 61°F
Dewpoint
12°C / 54°F
Humidity
77%
Altimeter
29.91" Hg
Pressure
1012.92 hPa